Weather at Syktyvkar Airport

Public forecast

Using degrees Celsius for public forecast. Weather courtesy of forecast.io.

Current aviation weather report (METAR) for Syktyvkar Airport

Retrieved 2021/04/12 15:00 UTC (20 minutes ago):

UUYY 121500Z 23003MPS CAVOK 11/M12 Q1035 R18/61D NOSIG RMK QFE767/1023

Aviation forecast (TAF) for Syktyvkar Airport

Retrieved 2021/04/12 15:21 UTC (0 seconds ago):

TAF UUYY 121400Z 1215/1315 22003G09MPS 9999 SCT025 TEMPO 1215/1218 24004G11MPS BECMG 1218/1219 20003G09MPS BECMG 1303/1305 19004G12MPS